sensor_id;sensor_type;location;lat;lon;timestamp;P1;P2;P0
73146;PMS7003;61345;48.922;2.244;2023-05-07T00:01:32;0.00;0.00;0.00
73146;PMS7003;61345;48.922;2.244;2023-05-07T00:03:57;2.00;0.00;0.00
73146;PMS7003;61345;48.922;2.244;2023-05-07T00:06:22;1.00;1.00;1.00
73146;PMS7003;61345;48.922;2.244;2023-05-07T00:08:48;0.25;0.25;0.00
73146;PMS7003;61345;48.922;2.244;2023-05-07T00:11:13;1.67;1.00;0.00
73146;PMS7003;61345;48.922;2.244;2023-05-07T00:13:38;0.00;0.00;0.00
73146;PMS7003;61345;48.922;2.244;2023-05-07T00:16:03;2.67;1.00;0.00
73146;PMS7003;61345;48.922;2.244;2023-05-07T00:18:29;1.00;1.00;0.25
73146;PMS7003;61345;48.922;2.244;2023-05-07T00:20:54;0.25;0.25;0.00
73146;PMS7003;61345;48.922;2.244;2023-05-07T00:23:20;0.00;0.00;0.00
73146;PMS7003;61345;48.922;2.244;2023-05-07T00:25:45;0.00;0.00;0.00
73146;PMS7003;61345;48.922;2.244;2023-05-07T00:28:10;0.00;0.00;0.00
73146;PMS7003;61345;48.922;2.244;2023-05-07T00:30:35;0.33;0.33;0.33
73146;PMS7003;61345;48.922;2.244;2023-05-07T00:33:00;0.00;0.00;0.00
73146;PMS7003;61345;48.922;2.244;2023-05-07T00:35:26;0.67;0.67;0.33
73146;PMS7003;61345;48.922;2.244;2023-05-07T00:37:51;2.00;1.00;1.00
73146;PMS7003;61345;48.922;2.244;2023-05-07T00:40:16;1.67;0.67;0.67
73146;PMS7003;61345;48.922;2.244;2023-05-07T00:42:41;1.00;1.00;0.00
73146;PMS7003;61345;48.922;2.244;2023-05-07T00:45:07;0.00;0.00;0.00
73146;PMS7003;61345;48.922;2.244;2023-05-07T00:47:32;0.75;0.75;0.00
73146;PMS7003;61345;48.922;2.244;2023-05-07T00:49:58;1.00;1.00;0.00
73146;PMS7003;61345;48.922;2.244;2023-05-07T00:52:23;1.75;0.50;0.50
73146;PMS7003;61345;48.922;2.244;2023-05-07T00:54:50;0.50;0.50;0.50
73146;PMS7003;61345;48.922;2.244;2023-05-07T00:57:16;0.25;0.00;0.00
73146;PMS7003;61345;48.922;2.244;2023-05-07T00:59:41;2.00;1.00;0.33
73146;PMS7003;61345;48.922;2.244;2023-05-07T01:02:06;1.00;1.00;0.75
73146;PMS7003;61345;48.922;2.244;2023-05-07T01:04:32;1.00;1.00;1.00
73146;PMS7003;61345;48.922;2.244;2023-05-07T01:06:57;1.00;1.00;1.00
73146;PMS7003;61345;48.922;2.244;2023-05-07T01:09:24;1.00;1.00;0.50
73146;PMS7003;61345;48.922;2.244;2023-05-07T01:11:50;1.00;1.00;0.75
73146;PMS7003;61345;48.922;2.244;2023-05-07T01:14:16;3.75;1.00;1.00
73146;PMS7003;61345;48.922;2.244;2023-05-07T01:16:42;2.75;1.25;1.00
73146;PMS7003;61345;48.922;2.244;2023-05-07T01:19:08;1.00;1.00;1.00
73146;PMS7003;61345;48.922;2.244;2023-05-07T01:21:33;0.75;0.75;0.50
73146;PMS7003;61345;48.922;2.244;2023-05-07T01:23:59;2.25;1.75;1.00
73146;PMS7003;61345;48.922;2.244;2023-05-07T01:26:25;2.25;1.00;1.00
73146;PMS7003;61345;48.922;2.244;2023-05-07T01:28:50;0.00;0.00;0.00
73146;PMS7003;61345;48.922;2.244;2023-05-07T01:31:15;1.00;0.00;0.00
73146;PMS7003;61345;48.922;2.244;2023-05-07T01:33:41;1.00;1.00;0.00
73146;PMS7003;61345;48.922;2.244;2023-05-07T01:36:08;0.50;0.50;0.25
73146;PMS7003;61345;48.922;2.244;2023-05-07T01:38:36;0.00;0.00;0.00
73146;PMS7003;61345;48.922;2.244;2023-05-07T01:41:02;2.00;0.00;0.00
73146;PMS7003;61345;48.922;2.244;2023-05-07T01:43:28;0.50;0.50;0.00
73146;PMS7003;61345;48.922;2.244;2023-05-07T01:45:53;0.50;0.00;0.00
73146;PMS7003;61345;48.922;2.244;2023-05-07T01:48:19;0.00;0.00;0.00
73146;PMS7003;61345;48.922;2.244;2023-05-07T01:50:45;0.00;0.00;0.00
73146;PMS7003;61345;48.922;2.244;2023-05-07T01:53:11;1.50;0.00;0.00
73146;PMS7003;61345;48.922;2.244;2023-05-07T01:55:36;1.00;0.00;0.00
73146;PMS7003;61345;48.922;2.244;2023-05-07T01:58:05;0.00;0.00;0.00
73146;PMS7003;61345;48.922;2.244;2023-05-07T02:00:30;1.00;0.00;0.00
73146;PMS7003;61345;48.922;2.244;2023-05-07T02:02:55;1.00;0.00;0.00
73146;PMS7003;61345;48.922;2.244;2023-05-07T02:05:21;0.00;0.00;0.00
73146;PMS7003;61345;48.922;2.244;2023-05-07T02:07:46;1.00;0.00;0.00
73146;PMS7003;61345;48.922;2.244;2023-05-07T02:10:11;0.00;0.00;0.00
73146;PMS7003;61345;48.922;2.244;2023-05-07T02:12:37;0.00;0.00;0.00
73146;PMS7003;61345;48.922;2.244;2023-05-07T02:15:02;0.00;0.00;0.00
73146;PMS7003;61345;48.922;2.244;2023-05-07T02:17:27;0.00;0.00;0.00
73146;PMS7003;61345;48.922;2.244;2023-05-07T02:19:52;0.00;0.00;0.00
73146;PMS7003;61345;48.922;2.244;2023-05-07T02:22:18;0.00;0.00;0.00
73146;PMS7003;61345;48.922;2.244;2023-05-07T02:24:43;0.67;0.00;0.00
73146;PMS7003;61345;48.922;2.244;2023-05-07T02:27:08;0.00;0.00;0.00
73146;PMS7003;61345;48.922;2.244;2023-05-07T02:29:33;0.33;0.00;0.00
73146;PMS7003;61345;48.922;2.244;2023-05-07T02:31:58;1.00;0.00;0.00
73146;PMS7003;61345;48.922;2.244;2023-05-07T02:34:23;0.00;0.00;0.00
73146;PMS7003;61345;48.922;2.244;2023-05-07T02:36:49;0.00;0.00;0.00
73146;PMS7003;61345;48.922;2.244;2023-05-07T02:39:14;0.00;0.00;0.00
73146;PMS7003;61345;48.922;2.244;2023-05-07T02:41:40;0.00;0.00;0.00
73146;PMS7003;61345;48.922;2.244;2023-05-07T02:44:05;0.00;0.00;0.00
73146;PMS7003;61345;48.922;2.244;2023-05-07T02:46:30;0.50;0.00;0.00
73146;PMS7003;61345;48.922;2.244;2023-05-07T02:48:56;0.75;0.75;0.00
73146;PMS7003;61345;48.922;2.244;2023-05-07T02:51:21;1.00;1.00;0.00
73146;PMS7003;61345;48.922;2.244;2023-05-07T02:53:47;0.75;0.00;0.00
73146;PMS7003;61345;48.922;2.244;2023-05-07T02:56:12;0.33;0.00;0.00
73146;PMS7003;61345;48.922;2.244;2023-05-07T02:58:37;1.00;0.00;0.00
73146;PMS7003;61345;48.922;2.244;2023-05-07T03:01:04;0.50;0.00;0.00
73146;PMS7003;61345;48.922;2.244;2023-05-07T03:03:29;2.00;0.00;0.00
73146;PMS7003;61345;48.922;2.244;2023-05-07T03:05:54;0.00;0.00;0.00
73146;PMS7003;61345;48.922;2.244;2023-05-07T03:08:20;0.00;0.00;0.00
73146;PMS7003;61345;48.922;2.244;2023-05-07T03:10:45;1.00;0.00;0.00
73146;PMS7003;61345;48.922;2.244;2023-05-07T03:13:11;0.00;0.00;0.00
73146;PMS7003;61345;48.922;2.244;2023-05-07T03:15:36;1.00;1.00;0.00
73146;PMS7003;61345;48.922;2.244;2023-05-07T03:18:01;0.00;0.00;0.00
73146;PMS7003;61345;48.922;2.244;2023-05-07T03:20:26;1.33;0.00;0.00
73146;PMS7003;61345;48.922;2.244;2023-05-07T03:22:51;1.00;1.00;1.00
73146;PMS7003;61345;48.922;2.244;2023-05-07T03:25:17;0.33;0.00;0.00
73146;PMS7003;61345;48.922;2.244;2023-05-07T03:27:42;3.00;1.00;0.33
73146;PMS7003;61345;48.922;2.244;2023-05-07T03:30:07;0.00;0.00;0.00
73146;PMS7003;61345;48.922;2.244;2023-05-07T03:32:33;0.25;0.25;0.25
73146;PMS7003;61345;48.922;2.244;2023-05-07T03:34:58;0.00;0.00;0.00
73146;PMS7003;61345;48.922;2.244;2023-05-07T03:37:24;3.33;1.00;0.33
73146;PMS7003;61345;48.922;2.244;2023-05-07T03:39:49;1.00;0.00;0.00
73146;PMS7003;61345;48.922;2.244;2023-05-07T03:42:14;0.25;0.25;0.00
73146;PMS7003;61345;48.922;2.244;2023-05-07T03:44:39;1.00;0.00;0.00
73146;PMS7003;61345;48.922;2.244;2023-05-07T03:47:05;0.00;0.00;0.00
73146;PMS7003;61345;48.922;2.244;2023-05-07T03:49:30;1.00;0.00;0.00
73146;PMS7003;61345;48.922;2.244;2023-05-07T03:51:55;0.00;0.00;0.00
73146;PMS7003;61345;48.922;2.244;2023-05-07T03:54:20;0.00;0.00;0.00
73146;PMS7003;61345;48.922;2.244;2023-05-07T03:56:46;0.00;0.00;0.00
73146;PMS7003;61345;48.922;2.244;2023-05-07T03:59:12;0.00;0.00;0.00
73146;PMS7003;61345;48.922;2.244;2023-05-07T04:01:38;0.00;0.00;0.00
73146;PMS7003;61345;48.922;2.244;2023-05-07T04:04:03;1.00;0.00;0.00
73146;PMS7003;61345;48.922;2.244;2023-05-07T04:06:29;0.00;0.00;0.00
73146;PMS7003;61345;48.922;2.244;2023-05-07T04:08:54;0.33;0.00;0.00
73146;PMS7003;61345;48.922;2.244;2023-05-07T04:11:19;0.00;0.00;0.00
73146;PMS7003;61345;48.922;2.244;2023-05-07T04:13:45;0.00;0.00;0.00
73146;PMS7003;61345;48.922;2.244;2023-05-07T04:16:10;0.00;0.00;0.00
73146;PMS7003;61345;48.922;2.244;2023-05-07T04:18:35;0.33;0.00;0.00
73146;PMS7003;61345;48.922;2.244;2023-05-07T04:21:00;1.00;0.00;0.00
73146;PMS7003;61345;48.922;2.244;2023-05-07T04:23:27;0.00;0.00;0.00
73146;PMS7003;61345;48.922;2.244;2023-05-07T04:25:52;1.00;0.00;0.00
73146;PMS7003;61345;48.922;2.244;2023-05-07T04:28:17;0.50;0.00;0.00
73146;PMS7003;61345;48.922;2.244;2023-05-07T04:30:43;1.25;0.00;0.00
73146;PMS7003;61345;48.922;2.244;2023-05-07T04:33:08;0.00;0.00;0.00
73146;PMS7003;61345;48.922;2.244;2023-05-07T04:35:33;0.00;0.00;0.00
73146;PMS7003;61345;48.922;2.244;2023-05-07T04:37:58;1.00;0.00;0.00
73146;PMS7003;61345;48.922;2.244;2023-05-07T04:40:23;3.00;0.00;0.00
73146;PMS7003;61345;48.922;2.244;2023-05-07T04:42:49;2.00;0.00;0.00
73146;PMS7003;61345;48.922;2.244;2023-05-07T04:45:14;0.00;0.00;0.00
73146;PMS7003;61345;48.922;2.244;2023-05-07T04:47:40;0.00;0.00;0.00
73146;PMS7003;61345;48.922;2.244;2023-05-07T04:50:06;0.00;0.00;0.00
73146;PMS7003;61345;48.922;2.244;2023-05-07T04:52:31;0.00;0.00;0.00
73146;PMS7003;61345;48.922;2.244;2023-05-07T04:54:58;0.00;0.00;0.00
73146;PMS7003;61345;48.922;2.244;2023-05-07T04:57:23;1.00;0.00;0.00
73146;PMS7003;61345;48.922;2.244;2023-05-07T04:59:49;1.00;0.00;0.00
73146;PMS7003;61345;48.922;2.244;2023-05-07T05:02:14;0.00;0.00;0.00
73146;PMS7003;61345;48.922;2.244;2023-05-07T05:04:39;0.00;0.00;0.00
73146;PMS7003;61345;48.922;2.244;2023-05-07T05:07:04;0.00;0.00;0.00
73146;PMS7003;61345;48.922;2.244;2023-05-07T05:09:30;0.00;0.00;0.00
73146;PMS7003;61345;48.922;2.244;2023-05-07T05:11:55;1.00;0.00;0.00
73146;PMS7003;61345;48.922;2.244;2023-05-07T05:14:20;0.00;0.00;0.00
73146;PMS7003;61345;48.922;2.244;2023-05-07T05:16:45;0.00;0.00;0.00
73146;PMS7003;61345;48.922;2.244;2023-05-07T05:19:11;1.00;0.00;0.00
73146;PMS7003;61345;48.922;2.244;2023-05-07T05:21:36;0.00;0.00;0.00
73146;PMS7003;61345;48.922;2.244;2023-05-07T05:24:01;1.00;0.00;0.00
73146;PMS7003;61345;48.922;2.244;2023-05-07T05:26:26;0.00;0.00;0.00
73146;PMS7003;61345;48.922;2.244;2023-05-07T05:28:51;0.00;0.00;0.00
73146;PMS7003;61345;48.922;2.244;2023-05-07T05:31:16;0.00;0.00;0.00
73146;PMS7003;61345;48.922;2.244;2023-05-07T05:33:42;0.00;0.00;0.00
73146;PMS7003;61345;48.922;2.244;2023-05-07T05:36:09;0.67;0.00;0.00
73146;PMS7003;61345;48.922;2.244;2023-05-07T05:38:34;0.00;0.00;0.00
73146;PMS7003;61345;48.922;2.244;2023-05-07T05:40:59;0.00;0.00;0.00
73146;PMS7003;61345;48.922;2.244;2023-05-07T05:43:25;0.00;0.00;0.00
73146;PMS7003;61345;48.922;2.244;2023-05-07T05:45:50;0.00;0.00;0.00
73146;PMS7003;61345;48.922;2.244;2023-05-07T05:48:15;0.00;0.00;0.00
73146;PMS7003;61345;48.922;2.244;2023-05-07T05:50:41;0.00;0.00;0.00
73146;PMS7003;61345;48.922;2.244;2023-05-07T05:53:07;0.00;0.00;0.00
73146;PMS7003;61345;48.922;2.244;2023-05-07T05:55:32;0.00;0.00;0.00
73146;PMS7003;61345;48.922;2.244;2023-05-07T05:57:57;0.00;0.00;0.00
73146;PMS7003;61345;48.922;2.244;2023-05-07T06:00:22;0.00;0.00;0.00
73146;PMS7003;61345;48.922;2.244;2023-05-07T06:02:48;0.00;0.00;0.00
73146;PMS7003;61345;48.922;2.244;2023-05-07T06:05:13;0.00;0.00;0.00
73146;PMS7003;61345;48.922;2.244;2023-05-07T06:07:38;0.00;0.00;0.00
73146;PMS7003;61345;48.922;2.244;2023-05-07T06:10:04;0.33;0.00;0.00
73146;PMS7003;61345;48.922;2.244;2023-05-07T06:12:29;0.00;0.00;0.00
73146;PMS7003;61345;48.922;2.244;2023-05-07T06:14:54;1.00;1.00;1.00
73146;PMS7003;61345;48.922;2.244;2023-05-07T06:17:20;0.00;0.00;0.00
73146;PMS7003;61345;48.922;2.244;2023-05-07T06:19:45;0.00;0.00;0.00
73146;PMS7003;61345;48.922;2.244;2023-05-07T06:22:10;0.33;0.33;0.33
73146;PMS7003;61345;48.922;2.244;2023-05-07T06:24:35;1.00;1.00;1.00
73146;PMS7003;61345;48.922;2.244;2023-05-07T06:27:00;0.33;0.33;0.00
73146;PMS7003;61345;48.922;2.244;2023-05-07T06:29:26;1.00;1.00;1.00
73146;PMS7003;61345;48.922;2.244;2023-05-07T06:31:54;1.33;0.00;0.00
73146;PMS7003;61345;48.922;2.244;2023-05-07T06:34:19;0.25;0.00;0.00
73146;PMS7003;61345;48.922;2.244;2023-05-07T06:36:44;0.00;0.00;0.00
73146;PMS7003;61345;48.922;2.244;2023-05-07T06:39:10;0.67;0.00;0.00
73146;PMS7003;61345;48.922;2.244;2023-05-07T06:41:35;0.00;0.00;0.00
73146;PMS7003;61345;48.922;2.244;2023-05-07T06:44:01;0.00;0.00;0.00
73146;PMS7003;61345;48.922;2.244;2023-05-07T06:46:27;0.75;0.00;0.00
73146;PMS7003;61345;48.922;2.244;2023-05-07T06:48:52;0.00;0.00;0.00
73146;PMS7003;61345;48.922;2.244;2023-05-07T06:51:17;0.00;0.00;0.00
73146;PMS7003;61345;48.922;2.244;2023-05-07T06:53:42;0.00;0.00;0.00
73146;PMS7003;61345;48.922;2.244;2023-05-07T06:56:08;0.00;0.00;0.00
73146;PMS7003;61345;48.922;2.244;2023-05-07T06:58:33;0.00;0.00;0.00
73146;PMS7003;61345;48.922;2.244;2023-05-07T07:00:58;0.00;0.00;0.00
73146;PMS7003;61345;48.922;2.244;2023-05-07T07:03:23;0.33;0.00;0.00
73146;PMS7003;61345;48.922;2.244;2023-05-07T07:05:51;0.00;0.00;0.00
73146;PMS7003;61345;48.922;2.244;2023-05-07T07:08:17;1.00;0.00;0.00
73146;PMS7003;61345;48.922;2.244;2023-05-07T07:10:42;0.00;0.00;0.00
73146;PMS7003;61345;48.922;2.244;2023-05-07T07:13:08;0.00;0.00;0.00
73146;PMS7003;61345;48.922;2.244;2023-05-07T07:15:33;0.00;0.00;0.00
73146;PMS7003;61345;48.922;2.244;2023-05-07T07:17:58;0.00;0.00;0.00
73146;PMS7003;61345;48.922;2.244;2023-05-07T07:20:23;0.00;0.00;0.00
73146;PMS7003;61345;48.922;2.244;2023-05-07T07:22:48;1.00;0.00;0.00
73146;PMS7003;61345;48.922;2.244;2023-05-07T07:25:13;1.00;0.00;0.00
73146;PMS7003;61345;48.922;2.244;2023-05-07T07:27:39;0.00;0.00;0.00
73146;PMS7003;61345;48.922;2.244;2023-05-07T07:30:05;0.75;0.00;0.00
73146;PMS7003;61345;48.922;2.244;2023-05-07T07:32:32;0.75;0.00;0.00
73146;PMS7003;61345;48.922;2.244;2023-05-07T07:34:58;0.25;0.00;0.00
73146;PMS7003;61345;48.922;2.244;2023-05-07T07:37:23;1.00;0.00;0.00
73146;PMS7003;61345;48.922;2.244;2023-05-07T07:39:50;0.00;0.00;0.00
73146;PMS7003;61345;48.922;2.244;2023-05-07T07:42:15;0.00;0.00;0.00
73146;PMS7003;61345;48.922;2.244;2023-05-07T07:44:40;0.00;0.00;0.00
73146;PMS7003;61345;48.922;2.244;2023-05-07T07:47:06;0.00;0.00;0.00
73146;PMS7003;61345;48.922;2.244;2023-05-07T07:49:31;0.00;0.00;0.00
73146;PMS7003;61345;48.922;2.244;2023-05-07T07:51:56;0.00;0.00;0.00
73146;PMS7003;61345;48.922;2.244;2023-05-07T07:54:21;1.00;0.00;0.00
73146;PMS7003;61345;48.922;2.244;2023-05-07T07:56:46;1.00;0.00;0.00
73146;PMS7003;61345;48.922;2.244;2023-05-07T07:59:12;0.00;0.00;0.00
73146;PMS7003;61345;48.922;2.244;2023-05-07T08:01:38;0.00;0.00;0.00
73146;PMS7003;61345;48.922;2.244;2023-05-07T08:04:03;0.00;0.00;0.00
73146;PMS7003;61345;48.922;2.244;2023-05-07T08:06:30;1.00;0.00;0.00
73146;PMS7003;61345;48.922;2.244;2023-05-07T08:08:55;0.00;0.00;0.00
73146;PMS7003;61345;48.922;2.244;2023-05-07T08:11:20;1.00;1.00;0.67
73146;PMS7003;61345;48.922;2.244;2023-05-07T08:13:46;0.00;0.00;0.00
73146;PMS7003;61345;48.922;2.244;2023-05-07T08:16:11;0.00;0.00;0.00
73146;PMS7003;61345;48.922;2.244;2023-05-07T08:18:37;1.25;0.00;0.00
73146;PMS7003;61345;48.922;2.244;2023-05-07T08:21:02;0.50;0.00;0.00
73146;PMS7003;61345;48.922;2.244;2023-05-07T08:23:27;0.00;0.00;0.00
73146;PMS7003;61345;48.922;2.244;2023-05-07T08:25:52;0.00;0.00;0.00
73146;PMS7003;61345;48.922;2.244;2023-05-07T08:28:18;0.00;0.00;0.00
73146;PMS7003;61345;48.922;2.244;2023-05-07T08:30:44;0.50;0.00;0.00
73146;PMS7003;61345;48.922;2.244;2023-05-07T08:33:09;0.00;0.00;0.00
73146;PMS7003;61345;48.922;2.244;2023-05-07T08:35:34;0.00;0.00;0.00
73146;PMS7003;61345;48.922;2.244;2023-05-07T08:38:00;0.00;0.00;0.00
73146;PMS7003;61345;48.922;2.244;2023-05-07T08:40:25;0.00;0.00;0.00
73146;PMS7003;61345;48.922;2.244;2023-05-07T08:42:52;0.00;0.00;0.00
73146;PMS7003;61345;48.922;2.244;2023-05-07T08:45:19;0.00;0.00;0.00
73146;PMS7003;61345;48.922;2.244;2023-05-07T08:47:45;0.00;0.00;0.00
73146;PMS7003;61345;48.922;2.244;2023-05-07T08:50:11;0.00;0.00;0.00
73146;PMS7003;61345;48.922;2.244;2023-05-07T08:52:36;2.00;0.00;0.00
73146;PMS7003;61345;48.922;2.244;2023-05-07T08:55:02;2.00;0.00;0.00
73146;PMS7003;61345;48.922;2.244;2023-05-07T08:57:28;1.00;0.00;0.00
73146;PMS7003;61345;48.922;2.244;2023-05-07T08:59:53;0.00;0.00;0.00
73146;PMS7003;61345;48.922;2.244;2023-05-07T09:02:18;0.67;0.00;0.00
73146;PMS7003;61345;48.922;2.244;2023-05-07T09:04:43;0.00;0.00;0.00
73146;PMS7003;61345;48.922;2.244;2023-05-07T09:07:09;0.00;0.00;0.00
73146;PMS7003;61345;48.922;2.244;2023-05-07T09:09:34;0.00;0.00;0.00
73146;PMS7003;61345;48.922;2.244;2023-05-07T09:11:59;1.33;0.00;0.00
73146;PMS7003;61345;48.922;2.244;2023-05-07T09:14:24;0.00;0.00;0.00
73146;PMS7003;61345;48.922;2.244;2023-05-07T09:16:51;0.00;0.00;0.00
73146;PMS7003;61345;48.922;2.244;2023-05-07T09:19:21;0.75;0.00;0.00
73146;PMS7003;61345;48.922;2.244;2023-05-07T09:21:47;0.00;0.00;0.00
73146;PMS7003;61345;48.922;2.244;2023-05-07T09:24:14;0.00;0.00;0.00
73146;PMS7003;61345;48.922;2.244;2023-05-07T09:26:40;0.25;0.00;0.00
73146;PMS7003;61345;48.922;2.244;2023-05-07T09:29:05;0.00;0.00;0.00
73146;PMS7003;61345;48.922;2.244;2023-05-07T09:31:31;0.00;0.00;0.00
73146;PMS7003;61345;48.922;2.244;2023-05-07T09:33:56;1.00;1.00;0.33
73146;PMS7003;61345;48.922;2.244;2023-05-07T09:36:22;0.00;0.00;0.00
73146;PMS7003;61345;48.922;2.244;2023-05-07T09:38:47;0.00;0.00;0.00
73146;PMS7003;61345;48.922;2.244;2023-05-07T09:41:14;1.00;0.75;0.00
73146;PMS7003;61345;48.922;2.244;2023-05-07T09:43:40;0.00;0.00;0.00
73146;PMS7003;61345;48.922;2.244;2023-05-07T09:46:06;0.00;0.00;0.00
73146;PMS7003;61345;48.922;2.244;2023-05-07T09:48:32;0.50;0.50;0.50
73146;PMS7003;61345;48.922;2.244;2023-05-07T09:51:01;1.00;1.00;0.25
73146;PMS7003;61345;48.922;2.244;2023-05-07T09:53:27;1.50;0.75;0.75
73146;PMS7003;61345;48.922;2.244;2023-05-07T09:55:53;1.00;1.00;1.00
73146;PMS7003;61345;48.922;2.244;2023-05-07T09:58:19;1.67;1.67;1.00
73146;PMS7003;61345;48.922;2.244;2023-05-07T10:00:45;1.00;1.00;1.00
73146;PMS7003;61345;48.922;2.244;2023-05-07T10:03:10;1.00;1.00;1.00
73146;PMS7003;61345;48.922;2.244;2023-05-07T10:05:36;0.00;0.00;0.00
73146;PMS7003;61345;48.922;2.244;2023-05-07T10:08:02;0.00;0.00;0.00
73146;PMS7003;61345;48.922;2.244;2023-05-07T10:10:27;0.00;0.00;0.00
73146;PMS7003;61345;48.922;2.244;2023-05-07T10:12:54;2.00;0.75;0.50
73146;PMS7003;61345;48.922;2.244;2023-05-07T10:15:19;2.00;1.00;1.00
73146;PMS7003;61345;48.922;2.244;2023-05-07T10:17:44;1.00;1.00;1.00
73146;PMS7003;61345;48.922;2.244;2023-05-07T10:20:10;0.75;0.75;0.25
73146;PMS7003;61345;48.922;2.244;2023-05-07T10:22:41;1.00;0.00;0.00
73146;PMS7003;61345;48.922;2.244;2023-05-07T10:25:14;1.25;1.00;1.00
73146;PMS7003;61345;48.922;2.244;2023-05-07T10:27:41;1.00;1.00;0.75
73146;PMS7003;61345;48.922;2.244;2023-05-07T10:32:45;2.50;1.00;1.00
73146;PMS7003;61345;48.922;2.244;2023-05-07T10:35:24;1.00;0.00;0.00
73146;PMS7003;61345;48.922;2.244;2023-05-07T10:37:50;3.75;1.00;1.00
73146;PMS7003;61345;48.922;2.244;2023-05-07T10:40:16;3.50;2.00;2.00
73146;PMS7003;61345;48.922;2.244;2023-05-07T10:45:24;1.00;1.00;1.00
73146;PMS7003;61345;48.922;2.244;2023-05-07T10:48:11;2.00;2.00;1.25
73146;PMS7003;61345;48.922;2.244;2023-05-07T10:50:35;4.50;3.00;2.00
73146;PMS7003;61345;48.922;2.244;2023-05-07T10:55:41;1.00;1.00;0.75
73146;PMS7003;61345;48.922;2.244;2023-05-07T11:00:47;3.75;1.50;1.00
73146;PMS7003;61345;48.922;2.244;2023-05-07T11:03:12;3.00;2.00;1.00
73146;PMS7003;61345;48.922;2.244;2023-05-07T11:05:39;1.50;1.00;1.00
73146;PMS7003;61345;48.922;2.244;2023-05-07T11:08:05;3.00;1.75;1.00
73146;PMS7003;61345;48.922;2.244;2023-05-07T11:10:50;1.00;1.00;1.00
73146;PMS7003;61345;48.922;2.244;2023-05-07T11:13:16;1.50;1.00;1.00
73146;PMS7003;61345;48.922;2.244;2023-05-07T11:15:42;3.75;2.00;1.00
73146;PMS7003;61345;48.922;2.244;2023-05-07T11:18:09;1.25;1.25;0.75
73146;PMS7003;61345;48.922;2.244;2023-05-07T11:23:17;2.75;1.50;1.00
73146;PMS7003;61345;48.922;2.244;2023-05-07T11:25:58;2.00;2.00;1.75
73146;PMS7003;61345;48.922;2.244;2023-05-07T11:28:23;2.00;2.00;1.75
73146;PMS7003;61345;48.922;2.244;2023-05-07T11:30:48;1.00;1.00;1.00
73146;PMS7003;61345;48.922;2.244;2023-05-07T11:33:16;2.00;2.00;1.00
73146;PMS7003;61345;48.922;2.244;2023-05-07T11:35:41;2.25;2.00;1.00
73146;PMS7003;61345;48.922;2.244;2023-05-07T11:38:07;2.00;2.00;1.25
73146;PMS7003;61345;48.922;2.244;2023-05-07T11:40:32;2.75;2.00;1.25
73146;PMS7003;61345;48.922;2.244;2023-05-07T11:42:57;4.00;3.00;2.00
73146;PMS7003;61345;48.922;2.244;2023-05-07T11:45:23;5.00;2.00;1.33
73146;PMS7003;61345;48.922;2.244;2023-05-07T11:47:50;5.50;3.00;2.75
73146;PMS7003;61345;48.922;2.244;2023-05-07T11:50:15;4.00;1.67;1.00
73146;PMS7003;61345;48.922;2.244;2023-05-07T11:52:49;3.75;2.00;2.00
73146;PMS7003;61345;48.922;2.244;2023-05-07T11:55:14;4.50;2.25;2.00
73146;PMS7003;61345;48.922;2.244;2023-05-07T11:57:43;3.50;2.00;1.00
73146;PMS7003;61345;48.922;2.244;2023-05-07T12:00:09;5.00;3.00;2.00
73146;PMS7003;61345;48.922;2.244;2023-05-07T12:02:34;2.75;2.25;2.00
73146;PMS7003;61345;48.922;2.244;2023-05-07T12:05:00;2.50;1.00;0.75
73146;PMS7003;61345;48.922;2.244;2023-05-07T12:07:25;1.67;1.67;1.00
73146;PMS7003;61345;48.922;2.244;2023-05-07T12:09:50;2.00;1.00;1.00
73146;PMS7003;61345;48.922;2.244;2023-05-07T12:12:16;1.75;1.75;1.00
73146;PMS7003;61345;48.922;2.244;2023-05-07T12:14:43;2.00;2.00;2.00
73146;PMS7003;61345;48.922;2.244;2023-05-07T12:17:08;3.50;1.75;1.50
73146;PMS7003;61345;48.922;2.244;2023-05-07T12:19:34;6.25;3.00;2.00
73146;PMS7003;61345;48.922;2.244;2023-05-07T12:22:00;4.00;2.00;2.00
73146;PMS7003;61345;48.922;2.244;2023-05-07T12:24:26;2.00;2.00;2.00
73146;PMS7003;61345;48.922;2.244;2023-05-07T12:26:51;2.00;2.00;2.00
73146;PMS7003;61345;48.922;2.244;2023-05-07T12:29:16;3.00;1.33;1.00
73146;PMS7003;61345;48.922;2.244;2023-05-07T12:31:41;2.00;2.00;2.00
73146;PMS7003;61345;48.922;2.244;2023-05-07T12:34:07;3.00;2.00;1.50
73146;PMS7003;61345;48.922;2.244;2023-05-07T12:36:39;3.25;2.50;2.00
73146;PMS7003;61345;48.922;2.244;2023-05-07T12:39:07;3.00;2.00;2.00
73146;PMS7003;61345;48.922;2.244;2023-05-07T12:41:52;2.00;2.00;2.00
73146;PMS7003;61345;48.922;2.244;2023-05-07T12:44:18;2.25;2.00;1.50
73146;PMS7003;61345;48.922;2.244;2023-05-07T12:46:43;3.00;1.67;1.67
73146;PMS7003;61345;48.922;2.244;2023-05-07T12:49:08;3.00;3.00;1.00
73146;PMS7003;61345;48.922;2.244;2023-05-07T12:51:34;1.00;1.00;1.00
73146;PMS7003;61345;48.922;2.244;2023-05-07T12:54:00;4.00;2.00;2.00
73146;PMS7003;61345;48.922;2.244;2023-05-07T12:56:25;4.50;1.75;1.00
73146;PMS7003;61345;48.922;2.244;2023-05-07T12:58:50;5.00;3.00;2.00
73146;PMS7003;61345;48.922;2.244;2023-05-07T13:01:15;2.00;2.00;2.00
73146;PMS7003;61345;48.922;2.244;2023-05-07T13:03:47;3.50;2.00;2.00
73146;PMS7003;61345;48.922;2.244;2023-05-07T13:06:12;4.50;3.00;2.00
73146;PMS7003;61345;48.922;2.244;2023-05-07T13:08:41;2.00;2.00;2.00
73146;PMS7003;61345;48.922;2.244;2023-05-07T13:11:10;0.25;0.25;0.25
73146;PMS7003;61345;48.922;2.244;2023-05-07T13:13:36;2.50;1.00;0.75
73146;PMS7003;61345;48.922;2.244;2023-05-07T13:16:02;1.00;1.00;1.00
73146;PMS7003;61345;48.922;2.244;2023-05-07T13:18:29;1.00;1.00;1.00
73146;PMS7003;61345;48.922;2.244;2023-05-07T13:20:55;1.50;1.00;0.75
73146;PMS7003;61345;48.922;2.244;2023-05-07T13:23:20;1.00;1.00;0.00
73146;PMS7003;61345;48.922;2.244;2023-05-07T13:25:45;0.00;0.00;0.00
73146;PMS7003;61345;48.922;2.244;2023-05-07T13:28:10;0.00;0.00;0.00
73146;PMS7003;61345;48.922;2.244;2023-05-07T13:30:35;2.33;0.00;0.00
73146;PMS7003;61345;48.922;2.244;2023-05-07T13:33:01;1.00;0.00;0.00
73146;PMS7003;61345;48.922;2.244;2023-05-07T13:35:26;0.75;0.75;0.75
73146;PMS7003;61345;48.922;2.244;2023-05-07T13:37:51;1.67;1.00;1.00
73146;PMS7003;61345;48.922;2.244;2023-05-07T13:40:17;1.00;1.00;0.00
73146;PMS7003;61345;48.922;2.244;2023-05-07T13:42:42;2.00;0.25;0.00
73146;PMS7003;61345;48.922;2.244;2023-05-07T13:45:07;3.00;1.33;1.00
73146;PMS7003;61345;48.922;2.244;2023-05-07T13:47:33;1.25;1.00;1.00
73146;PMS7003;61345;48.922;2.244;2023-05-07T13:49:58;4.00;1.00;1.00
73146;PMS7003;61345;48.922;2.244;2023-05-07T13:52:23;0.00;0.00;0.00
73146;PMS7003;61345;48.922;2.244;2023-05-07T13:54:49;4.00;2.00;1.67
73146;PMS7003;61345;48.922;2.244;2023-05-07T13:57:14;2.00;1.00;1.00
73146;PMS7003;61345;48.922;2.244;2023-05-07T13:59:40;7.00;2.00;1.75
73146;PMS7003;61345;48.922;2.244;2023-05-07T14:02:05;2.50;2.50;2.00
73146;PMS7003;61345;48.922;2.244;2023-05-07T14:04:31;3.00;3.00;2.00
73146;PMS7003;61345;48.922;2.244;2023-05-07T14:06:56;3.00;2.00;2.00
73146;PMS7003;61345;48.922;2.244;2023-05-07T14:09:21;5.33;3.67;3.00
73146;PMS7003;61345;48.922;2.244;2023-05-07T14:11:46;3.67;3.00;2.00
73146;PMS7003;61345;48.922;2.244;2023-05-07T14:14:12;4.25;3.00;2.25
73146;PMS7003;61345;48.922;2.244;2023-05-07T14:16:37;6.00;3.25;2.00
73146;PMS7003;61345;48.922;2.244;2023-05-07T14:19:03;3.67;2.00;2.00
73146;PMS7003;61345;48.922;2.244;2023-05-07T14:21:28;4.33;2.00;1.33
73146;PMS7003;61345;48.922;2.244;2023-05-07T14:23:53;6.00;2.00;2.00
73146;PMS7003;61345;48.922;2.244;2023-05-07T14:26:18;4.00;2.00;2.00
73146;PMS7003;61345;48.922;2.244;2023-05-07T14:28:44;3.25;3.00;2.75